Time;durP1;ratioP1;P1;durP2;ratioP2;P2;SDS_P1;SDS_P2;PMS_P1;PMS_P2;Temp;Humidity;BMP_temperature;BMP_pressure;BME280_temperature;BME280_humidity;BME280_pressure;Samples;Min_cycle;Max_cycle;Signal;HPM_P1;HPM_P2
2022/02/28 00:02:22;;;;;;;5.78;2.00;;;3.50;99.90;;;;;;6735805;88;20580;-79
2022/02/28 00:12:22;;;;;;;6.22;2.17;;;3.40;99.90;;;;;;6741316;88;20233;-81
2022/02/28 00:22:23;;;;;;;5.75;2.17;;;3.30;99.90;;;;;;6739862;88;20181;-80
2022/02/28 00:32:24;;;;;;;7.05;2.40;;;3.20;99.90;;;;;;6741803;88;20581;-79
2022/02/28 00:42:25;;;;;;;5.82;2.15;;;3.30;99.90;;;;;;6744494;88;20644;-78
2022/02/28 00:52:25;;;;;;;5.57;2.17;;;3.30;99.90;;;;;;6743749;88;20197;-79
2022/02/28 01:02:26;;;;;;;5.28;1.83;;;3.10;99.90;;;;;;6707528;88;20199;-79
2022/02/28 01:12:26;;;;;;;5.30;2.03;;;3.00;99.90;;;;;;6707615;88;20239;-78
2022/02/28 01:22:27;;;;;;;5.35;2.35;;;3.20;99.90;;;;;;6720069;88;20229;-79
2022/02/28 01:32:28;;;;;;;4.87;2.50;;;3.20;99.90;;;;;;6745206;88;20197;-79
2022/02/28 01:42:28;;;;;;;6.40;2.20;;;3.10;99.90;;;;;;6744509;88;20254;-79
2022/02/28 01:52:29;;;;;;;6.28;2.40;;;3.00;99.90;;;;;;6744494;88;20201;-80
2022/02/28 02:02:29;;;;;;;7.22;2.58;;;2.90;99.90;;;;;;6744629;88;20185;-79
2022/02/28 02:12:30;;;;;;;7.20;2.60;;;3.00;99.90;;;;;;6745189;88;20177;-79
2022/02/28 02:22:31;;;;;;;4.50;2.37;;;2.80;99.90;;;;;;6745670;88;20469;-79
2022/02/28 02:32:31;;;;;;;5.47;2.62;;;2.70;99.90;;;;;;6741452;88;20189;-79
2022/02/28 02:42:32;;;;;;;7.25;2.58;;;2.70;99.90;;;;;;6746600;88;20701;-79
2022/02/28 02:52:33;;;;;;;6.72;3.00;;;2.60;99.90;;;;;;6742294;88;20267;-79
2022/02/28 03:02:34;;;;;;;6.28;2.83;;;2.40;99.90;;;;;;6745709;88;20858;-80
2022/02/28 03:12:34;;;;;;;7.60;2.90;;;2.40;99.90;;;;;;6745347;88;20288;-79
2022/02/28 03:22:35;;;;;;;4.97;2.53;;;2.50;99.90;;;;;;6744288;88;20539;-79
2022/02/28 03:32:36;;;;;;;5.82;2.92;;;2.40;99.90;;;;;;6744587;88;20191;-78
2022/02/28 03:42:37;;;;;;;5.97;2.90;;;2.30;99.90;;;;;;6736171;77;20224;-73
2022/02/28 03:52:37;;;;;;;7.15;2.90;;;2.30;99.90;;;;;;6713432;88;20186;-74
2022/02/28 04:02:38;;;;;;;7.22;2.90;;;2.00;99.90;;;;;;6719256;88;20197;-73
2022/02/28 04:12:38;;;;;;;6.25;2.90;;;1.80;99.90;;;;;;6705578;88;20197;-73
2022/02/28 04:22:39;;;;;;;8.70;3.20;;;1.60;99.90;;;;;;6714110;88;20580;-73
2022/02/28 04:32:40;;;;;;;5.65;3.10;;;1.30;99.90;;;;;;6697942;88;20558;-73
2022/02/28 04:42:40;;;;;;;6.00;3.42;;;1.40;99.90;;;;;;6692968;88;20210;-74
2022/02/28 04:52:41;;;;;;;6.82;3.35;;;1.20;99.90;;;;;;6700710;88;20326;-73
2022/02/28 05:02:41;;;;;;;9.30;3.70;;;1.00;99.90;;;;;;6697185;88;20208;-73
2022/02/28 05:12:42;;;;;;;10.38;3.75;;;0.70;99.90;;;;;;6700402;88;20750;-73
2022/02/28 05:22:42;;;;;;;6.78;3.40;;;0.50;99.90;;;;;;6732811;88;20307;-73
2022/02/28 05:32:43;;;;;;;6.55;3.33;;;0.10;99.90;;;;;;6716559;88;20815;-73
2022/02/28 05:42:44;;;;;;;7.90;3.75;;;-0.10;99.90;;;;;;6723760;88;20212;-73
2022/02/28 05:52:45;;;;;;;8.15;3.80;;;-0.30;99.90;;;;;;6711507;88;20238;-73
2022/02/28 06:02:48;;;;;;;7.30;3.60;;;-0.30;99.90;;;;;;6713486;88;20744;-73
2022/02/28 06:12:49;;;;;;;7.80;3.37;;;-0.50;99.90;;;;;;6716196;88;20277;-73
2022/02/28 06:22:49;;;;;;;10.77;4.53;;;-0.70;99.90;;;;;;6700822;88;20369;-73
2022/02/28 06:32:50;;;;;;;10.43;4.75;;;-0.50;99.90;;;;;;6697951;88;20320;-73
2022/02/28 06:42:51;;;;;;;10.32;5.20;;;0.00;99.90;;;;;;6698207;88;20206;-73
2022/02/28 06:52:51;;;;;;;9.80;4.95;;;0.30;99.90;;;;;;6703706;88;20349;-73
2022/02/28 07:02:52;;;;;;;12.40;5.07;;;0.30;99.90;;;;;;6699199;88;20239;-73
2022/02/28 07:12:53;;;;;;;13.73;4.93;;;0.50;99.90;;;;;;6701150;88;20230;-73
2022/02/28 07:22:53;;;;;;;10.93;5.00;;;0.70;99.90;;;;;;6713765;88;20687;-74
2022/02/28 07:32:54;;;;;;;14.35;4.90;;;0.90;99.90;;;;;;6712862;88;20212;-74
2022/02/28 07:42:55;;;;;;;11.40;4.70;;;1.30;99.90;;;;;;6715655;88;20217;-74
2022/02/28 07:52:55;;;;;;;13.15;5.10;;;1.70;99.90;;;;;;6714764;88;20536;-73
2022/02/28 08:02:56;;;;;;;8.57;4.50;;;2.40;99.90;;;;;;6714164;88;20739;-73
2022/02/28 08:12:56;;;;;;;10.15;4.43;;;3.90;99.90;;;;;;6713870;88;20356;-74
2022/02/28 08:22:57;;;;;;;7.87;4.30;;;6.20;99.90;;;;;;6713681;88;20348;-74
2022/02/28 08:32:58;;;;;;;10.65;4.00;;;5.90;99.90;;;;;;6714728;88;20193;-72
2022/02/28 08:42:59;;;;;;;9.55;4.30;;;6.00;99.90;;;;;;6727403;88;20194;-73
2022/02/28 08:52:59;;;;;;;9.15;4.00;;;5.70;99.90;;;;;;6721171;88;20181;-73
2022/02/28 09:03:00;;;;;;;6.15;2.95;;;5.70;99.90;;;;;;6719152;88;20680;-73
2022/02/28 09:13:00;;;;;;;9.55;3.80;;;6.10;99.90;;;;;;6720095;88;20663;-74
2022/02/28 09:23:01;;;;;;;5.93;3.22;;;6.50;99.90;;;;;;6721427;88;20718;-73
2022/02/28 09:33:02;;;;;;;9.70;3.62;;;6.70;98.10;;;;;;6715645;88;20216;-73
2022/02/28 09:43:23;;;;;;;8.30;3.62;;;6.90;97.30;;;;;;6731419;77;20168;-80
2022/02/28 09:53:23;;;;;;;9.52;4.72;;;7.30;95.60;;;;;;6726693;88;20217;-80
2022/02/28 10:03:25;;;;;;;7.68;4.40;;;7.70;95.30;;;;;;6725321;88;20226;-79
2022/02/28 10:13:31;;;;;;;8.55;4.30;;;7.70;94.50;;;;;;6724533;88;20211;-80
2022/02/28 10:23:31;;;;;;;9.30;4.55;;;8.20;92.70;;;;;;6724263;88;20189;-80
2022/02/28 10:33:37;;;;;;;12.57;4.37;;;8.30;92.10;;;;;;6725066;88;20245;-80
2022/02/28 10:43:38;;;;;;;8.43;3.58;;;8.30;91.70;;;;;;6720633;88;20676;-81
2022/02/28 10:53:39;;;;;;;8.95;4.95;;;8.60;90.70;;;;;;6720145;88;20213;-80
2022/02/28 11:03:47;;;;;;;9.32;4.82;;;8.40;90.30;;;;;;6721454;88;20196;-81
2022/02/28 11:13:48;;;;;;;7.93;3.58;;;9.00;88.40;;;;;;6721318;88;20166;-80
2022/02/28 11:23:49;;;;;;;10.02;5.40;;;9.20;86.60;;;;;;6724547;88;20224;-80
2022/02/28 11:33:52;;;;;;;8.07;4.55;;;9.30;86.40;;;;;;6723133;88;20181;-80
2022/02/28 11:43:54;;;;;;;6.30;3.72;;;10.10;84.80;;;;;;6717953;88;20224;-80
2022/02/28 11:53:56;;;;;;;7.97;4.60;;;10.30;81.80;;;;;;6722419;88;20231;-80
2022/02/28 12:04:21;;;;;;;8.02;4.72;;;10.10;83.00;;;;;;6725134;88;20251;-80
2022/02/28 12:14:21;;;;;;;11.50;4.93;;;11.20;81.50;;;;;;6722082;88;20213;-79
2022/02/28 12:24:54;;;;;;;9.77;5.32;;;10.90;81.80;;;;;;6721753;88;20208;-80
2022/02/28 12:34:57;;;;;;;10.38;4.43;;;11.30;80.50;;;;;;6724821;88;20990;-80
2022/02/28 12:44:59;;;;;;;10.95;4.90;;;11.50;78.10;;;;;;6725296;88;20206;-81
2022/02/28 12:54:59;;;;;;;9.10;4.70;;;12.70;76.10;;;;;;6724526;88;20660;-81
2022/02/28 13:05:00;;;;;;;10.45;5.72;;;13.40;73.00;;;;;;6723682;88;20210;-80
2022/02/28 13:15:01;;;;;;;9.95;4.85;;;13.00;73.30;;;;;;6723027;88;20416;-79
2022/02/28 13:25:01;;;;;;;9.63;4.37;;;13.70;70.10;;;;;;6725401;88;20221;-78
2022/02/28 13:35:02;;;;;;;10.50;5.15;;;13.60;68.60;;;;;;6718754;88;20789;-79
2022/02/28 13:45:09;;;;;;;10.43;4.87;;;14.70;67.20;;;;;;6681422;89;20782;-79
2022/02/28 13:55:14;;;;;;;6.68;3.75;;;14.10;66.80;;;;;;6682482;89;20222;-79
2022/02/28 14:05:15;;;;;;;11.13;5.50;;;13.40;67.10;;;;;;6713727;88;20201;-79
2022/02/28 14:15:15;;;;;;;8.73;4.45;;;14.60;69.60;;;;;;6713502;88;20215;-79
2022/02/28 14:25:16;;;;;;;12.70;6.07;;;15.10;64.90;;;;;;6712412;88;20689;-79
2022/02/28 14:35:17;;;;;;;10.50;5.20;;;14.30;66.90;;;;;;6715238;88;20661;-78
2022/02/28 14:45:18;;;;;;;8.73;4.80;;;13.90;66.40;;;;;;6711064;88;20299;-79
2022/02/28 14:55:19;;;;;;;9.45;5.20;;;13.70;63.70;;;;;;6715171;88;20589;-79
2022/02/28 15:05:19;;;;;;;11.90;5.05;;;13.10;64.00;;;;;;6713414;88;20654;-79
2022/02/28 15:15:20;;;;;;;11.00;4.45;;;13.40;63.30;;;;;;6713505;88;20211;-79
2022/02/28 15:25:21;;;;;;;8.10;4.47;;;13.40;62.50;;;;;;6713733;88;20679;-79
2022/02/28 15:35:21;;;;;;;8.00;4.62;;;13.20;61.50;;;;;;6716396;88;20185;-79
2022/02/28 15:46:03;;;;;;;16.87;8.40;;;12.80;62.20;;;;;;6728676;77;20745;-79
2022/02/28 15:56:04;;;;;;;8.00;4.50;;;12.90;63.30;;;;;;6697504;88;20203;-80
2022/02/28 16:06:04;;;;;;;8.85;4.35;;;12.50;62.80;;;;;;6697710;88;20695;-80
2022/02/28 16:16:05;;;;;;;10.57;4.47;;;12.30;62.80;;;;;;6700114;88;20224;-81
2022/02/28 16:26:06;;;;;;;8.95;4.22;;;12.00;64.10;;;;;;6696466;88;20683;-80
2022/02/28 16:36:07;;;;;;;8.38;4.22;;;12.00;64.50;;;;;;6695833;88;20186;-81
2022/02/28 16:46:09;;;;;;;9.07;4.53;;;11.60;64.50;;;;;;6700731;88;20359;-80
2022/02/28 16:56:09;;;;;;;9.38;5.05;;;10.90;66.10;;;;;;6700256;88;20189;-80
2022/02/28 17:06:10;;;;;;;8.52;4.57;;;10.50;67.00;;;;;;6699201;88;20220;-80
2022/02/28 17:16:10;;;;;;;9.15;4.30;;;10.00;68.50;;;;;;6699699;88;20193;-80
2022/02/28 17:26:11;;;;;;;11.45;4.68;;;9.70;69.40;;;;;;6700104;88;20190;-80
2022/02/28 17:36:12;;;;;;;8.95;4.85;;;9.30;70.10;;;;;;6700252;88;20191;-80
2022/02/28 17:46:14;;;;;;;9.52;4.50;;;9.10;70.50;;;;;;6701058;88;20324;-81
2022/02/28 17:56:15;;;;;;;11.07;4.72;;;8.80;71.80;;;;;;6683445;89;20737;-81
2022/02/28 18:06:15;;;;;;;9.15;4.53;;;8.70;72.60;;;;;;6683210;89;20260;-81
2022/02/28 18:16:16;;;;;;;10.48;5.37;;;8.40;73.50;;;;;;6683790;89;20183;-81
2022/02/28 18:26:17;;;;;;;11.68;5.37;;;8.30;74.20;;;;;;6683778;89;20195;-81
2022/02/28 18:36:17;;;;;;;9.73;4.80;;;8.00;74.60;;;;;;6683679;89;20612;-81
2022/02/28 18:46:19;;;;;;;11.38;4.68;;;7.70;75.70;;;;;;6684583;89;20217;-80
2022/02/28 18:56:21;;;;;;;9.23;4.68;;;7.60;75.60;;;;;;6685976;89;20623;-80
2022/02/28 19:06:22;;;;;;;8.85;4.60;;;7.40;76.40;;;;;;6685200;89;20761;-80
2022/02/28 19:16:22;;;;;;;10.20;4.60;;;7.20;77.30;;;;;;6686835;89;20238;-81
2022/02/28 19:26:23;;;;;;;10.52;4.80;;;7.20;77.50;;;;;;6666943;89;20519;-81
2022/02/28 19:36:23;;;;;;;9.60;5.05;;;7.00;78.30;;;;;;6666379;89;20217;-81
2022/02/28 19:46:24;;;;;;;13.02;5.50;;;6.80;78.80;;;;;;6679384;89;20229;-81
2022/02/28 19:56:25;;;;;;;13.10;5.37;;;6.30;80.50;;;;;;6685239;89;20199;-81
2022/02/28 20:06:26;;;;;;;13.63;5.83;;;6.20;81.80;;;;;;6682190;89;20211;-81
2022/02/28 20:16:27;;;;;;;11.93;5.57;;;6.30;82.50;;;;;;6686239;89;21068;-80
2022/02/28 20:26:28;;;;;;;12.60;5.70;;;6.30;83.10;;;;;;6687691;89;20214;-81
2022/02/28 20:36:29;;;;;;;12.37;6.07;;;6.10;84.60;;;;;;6682500;89;20207;-79
2022/02/28 20:46:29;;;;;;;13.05;6.85;;;6.00;85.30;;;;;;6685032;89;20285;-80
2022/02/28 20:56:30;;;;;;;11.95;6.05;;;5.80;86.10;;;;;;6685816;89;20253;-80
2022/02/28 21:06:30;;;;;;;14.68;6.95;;;5.90;85.90;;;;;;6683527;89;20188;-81
2022/02/28 21:16:31;;;;;;;15.32;6.60;;;5.80;86.60;;;;;;6681497;89;20217;-80
2022/02/28 21:26:31;;;;;;;14.18;6.50;;;5.40;89.00;;;;;;6681077;89;20223;-80
2022/02/28 21:36:35;;;;;;;16.48;8.10;;;5.30;90.40;;;;;;6678443;89;20269;-80
2022/02/28 21:57:38;;;;;;;13.75;7.87;;;4.20;97.10;;;;;;6732983;88;20166;-82
2022/02/28 22:07:39;;;;;;;17.45;8.32;;;3.90;99.90;;;;;;6732365;88;20181;-81
2022/02/28 22:17:40;;;;;;;17.33;8.50;;;3.60;99.90;;;;;;6732337;88;20185;-81
2022/02/28 22:27:41;;;;;;;16.90;7.78;;;3.40;99.90;;;;;;6728560;88;20176;-82
2022/02/28 22:37:41;;;;;;;16.62;8.32;;;3.20;99.90;;;;;;6728722;88;20162;-81
2022/02/28 22:47:42;;;;;;;15.15;7.90;;;3.20;99.90;;;;;;6732744;88;20205;-82
2022/02/28 22:57:43;;;;;;;18.70;8.20;;;3.40;99.90;;;;;;6731918;88;20170;-82
2022/02/28 23:07:44;;;;;;;17.20;8.07;;;3.10;99.90;;;;;;6727404;88;20192;-82
2022/02/28 23:28:05;;;;;;;14.02;7.82;;;2.50;99.90;;;;;;6732372;88;20177;-83
2022/02/28 23:38:06;;;;;;;16.73;8.00;;;2.40;99.90;;;;;;6732106;88;20184;-81
2022/02/28 23:48:06;;;;;;;15.15;8.00;;;2.40;99.90;;;;;;6728555;88;20511;-81
2022/02/28 23:58:07;;;;;;;18.35;8.18;;;2.40;99.90;;;;;;6730388;88;20169;-81
